Oconto, WI

9:38 PM CDT on August 27, 2015 (GMT -0500)
Oconto Municipal | | Change Station
CLOSE
Current Station
Airport
Location: Oconto,
Elevation: 604 ft
Nearby Weather Stations

Elev 604 ft 44.87 °N, 87.91 °W | Updated 23 minutes ago

Clear
Clear
62 °F
Feels Like 62 °F
N
4
Wind Variable Wind from SSE

Today
High -- | Low -- °F
--% Chance of Precip.
Yesterday
High -- | Low -- °F
Precip. -- in
6:07 AM 7:37 PM
Waxing Gibbous, 96% visible
Pressure 30.09 in
Visibility 10.0 miles
Clouds Clear
Dew Point 62 °F
Humidity 100%
Rainfall 0.00 in
Snow Depth Not available.
UV 0 out of 12
Pollen 9.60 out of 12
Air Quality Not available.
Flu Activity Not available.
METAR KOCQ 280215Z AUTO 16003KT 10SM CLR 16/16 A3009 RMK AO1 T01640164
Pressure 30.09 in
Visibility 10.0 miles
Clouds Clear
Dew Point 62 °F
Humidity 100%
Rainfall 0.00 in
Snow Depth Not available.
UV 0 out of 12
Pollen 9.60 out of 12
Air Quality Not available.
Flu Activity Not available.
METAR KOCQ 280215Z AUTO 16003KT 10SM CLR 16/16 A3009 RMK AO1 T01640164

10-Day Weather Forecast

×

Almanac

Astronomy

Aug. 27, 2015 Rise Set
Actual Time
Civil Twilight
Nautical Twilight
Astronomical Twilight
Moon
Length of Visible Light
Length of Day
Tomorrow will be .
, % of the Moon is Illuminated

Today's Extremes

State Highs State Lows

Community

WunderPhotos

Upload Photos

1,850,301 photos uploaded!

WunderBlogs® & News

Nearby

Air Quality

  Air Quality AQ Index Pollutant
Not available.

Snow Depth

Station Depth Elevation

Earthquake Activity

City Distance Mag. Time & Date
Minimum magnitude displayed is 2.5.

Coastal Water Temperatures

Place Temperature

Stations

Nearby Weather Stations

Station Location Temp. Windchill Dew Point Humidity Wind Precip. Elev Updated Type